Time;durP1;ratioP1;P1;durP2;ratioP2;P2;SDS_P1;SDS_P2;PMS_P1;PMS_P2;Temp;Humidity;BMP_temperature;BMP_pressure;BME280_temperature;BME280_humidity;BME280_pressure;Samples;Min_cycle;Max_cycle;Signal;HPM_P1;HPM_P2
2022/01/10 00:00:52;;;;;;;35.38;14.00;;;;;;;1.44;87.17;100709.66;5036993;28;20131;-68
2022/01/10 00:03:19;;;;;;;38.60;13.85;;;;;;;1.45;87.39;100707.88;5053449;28;20036;-68
2022/01/10 00:05:46;;;;;;;33.05;11.60;;;;;;;1.42;87.15;100710.66;5054387;28;20386;-68
2022/01/10 00:08:14;;;;;;;28.88;11.88;;;;;;;1.43;87.21;100720.19;5052798;28;20479;-68
2022/01/10 00:10:43;;;;;;;27.27;12.45;;;;;;;1.40;86.72;100718.63;5052638;28;20124;-68
2022/01/10 00:13:11;;;;;;;36.60;12.05;;;;;;;1.35;87.19;100723.28;5053299;28;20041;-69
2022/01/10 00:15:39;;;;;;;34.42;12.43;;;;;;;1.34;86.59;100732.88;5052873;28;20045;-69
2022/01/10 00:18:05;;;;;;;33.78;12.10;;;;;;;1.32;86.54;100733.94;5054357;28;20040;-68
2022/01/10 00:20:32;;;;;;;27.83;12.77;;;;;;;1.34;86.89;100732.06;5036620;28;20490;-68
2022/01/10 00:22:59;;;;;;;38.97;12.15;;;;;;;1.39;86.95;100735.22;5036501;28;20049;-68
2022/01/10 00:25:26;;;;;;;26.15;11.75;;;;;;;1.40;86.24;100733.44;5053734;28;20053;-68
2022/01/10 00:27:54;;;;;;;35.63;13.30;;;;;;;1.38;87.12;100738.78;5054201;28;20056;-68
2022/01/10 00:30:23;;;;;;;33.70;12.00;;;;;;;1.36;86.87;100735.41;5053736;28;20398;-69
2022/01/10 00:32:51;;;;;;;35.42;12.73;;;;;;;1.35;86.58;100738.97;5053941;28;20398;-68
2022/01/10 00:35:18;;;;;;;34.88;12.85;;;;;;;1.37;86.58;100744.13;5051938;28;20033;-70
2022/01/10 00:37:45;;;;;;;30.05;12.25;;;;;;;1.32;86.53;100753.06;5067393;28;20041;-69
2022/01/10 00:40:15;;;;;;;34.13;12.63;;;;;;;1.34;86.83;100747.75;5052829;28;20060;-68
2022/01/10 00:42:43;;;;;;;31.98;11.93;;;;;;;1.29;86.89;100755.03;5052739;28;20145;-68
2022/01/10 00:45:17;;;;;;;33.13;12.57;;;;;;;1.30;87.36;100762.78;5052485;28;20911;-68
2022/01/10 00:47:46;;;;;;;30.38;12.50;;;;;;;1.30;87.32;100761.94;5052553;28;20041;-68
2022/01/10 00:50:14;;;;;;;38.50;13.57;;;;;;;1.31;87.75;100767.09;5035477;28;20068;-68
2022/01/10 00:52:41;;;;;;;29.58;12.30;;;;;;;1.27;87.21;100773.41;5052479;28;20047;-68
2022/01/10 00:55:09;;;;;;;31.08;12.38;;;;;;;1.28;87.08;100784.72;5053365;28;20033;-68
2022/01/10 00:57:35;;;;;;;36.90;13.25;;;;;;;1.27;86.78;100777.81;5053527;28;20124;-68
2022/01/10 01:00:05;;;;;;;37.80;14.15;;;;;;;1.24;87.36;100785.84;5052373;28;20110;-68
2022/01/10 01:02:32;;;;;;;35.63;12.63;;;;;;;1.20;86.87;100782.59;5052270;28;20041;-69
2022/01/10 01:05:01;;;;;;;33.15;12.40;;;;;;;1.20;87.29;100787.81;5052087;28;20147;-68
2022/01/10 01:07:28;;;;;;;33.92;12.77;;;;;;;1.19;86.86;100783.50;5051600;28;20063;-68
2022/01/10 01:10:16;;;;;;;37.45;12.43;;;;;;;1.13;87.06;100789.94;5052021;28;20555;-68
2022/01/10 01:12:50;;;;;;;35.92;12.50;;;;;;;1.15;87.10;100795.06;5053044;28;20055;-69
2022/01/10 01:15:24;;;;;;;35.40;13.52;;;;;;;1.21;87.16;100801.72;5053070;28;20421;-68
2022/01/10 01:18:12;;;;;;;38.28;13.90;;;;;;;1.10;87.69;100807.56;5051973;28;20053;-68
2022/01/10 01:26:02;;;;;;;28.48;11.68;;;;;;;1.17;86.64;100823.72;5032946;28;20041;-68
2022/01/10 01:28:30;;;;;;;30.63;12.90;;;;;;;1.32;86.37;100826.25;5037728;28;20044;-68
2022/01/10 01:30:57;;;;;;;38.00;13.27;;;;;;;1.11;87.05;100843.19;5085518;28;20064;-68
2022/01/10 01:33:24;;;;;;;29.83;13.02;;;;;;;1.04;87.93;100850.59;5083102;28;20049;-68
2022/01/10 01:35:53;;;;;;;26.83;12.13;;;;;;;1.01;87.69;100850.75;5052830;28;20041;-68
2022/01/10 01:38:20;;;;;;;25.85;12.20;;;;;;;1.01;87.56;100860.38;5051570;28;20102;-69
2022/01/10 01:40:55;;;;;;;34.08;12.23;;;;;;;1.02;87.15;100867.25;5051631;28;20041;-68
2022/01/10 01:43:22;;;;;;;34.08;12.05;;;;;;;0.97;87.28;100861.50;5052892;28;20041;-68
2022/01/10 01:45:49;;;;;;;30.95;12.13;;;;;;;1.03;87.50;100872.41;5063755;28;20047;-68
2022/01/10 01:48:17;;;;;;;32.10;12.25;;;;;;;0.97;88.46;100867.53;5052683;28;20049;-68
2022/01/10 01:50:45;;;;;;;30.98;12.90;;;;;;;0.95;87.57;100870.25;5050505;28;20041;-68
2022/01/10 01:53:12;;;;;;;36.15;12.75;;;;;;;0.90;87.63;100872.28;5052528;28;20079;-68
2022/01/10 01:55:39;;;;;;;33.50;12.85;;;;;;;0.91;87.46;100876.59;5052395;28;20060;-68
2022/01/10 01:58:06;;;;;;;27.75;12.98;;;;;;;0.83;87.95;100873.56;5051729;28;20037;-68
2022/01/10 02:00:33;;;;;;;32.45;12.85;;;;;;;0.87;88.19;100885.50;5035642;28;20055;-68
2022/01/10 02:03:01;;;;;;;38.38;12.45;;;;;;;0.91;87.71;100884.41;5053803;28;20064;-68
2022/01/10 02:05:30;;;;;;;40.28;12.73;;;;;;;0.98;87.63;100886.66;5036040;28;20041;-68
2022/01/10 02:07:57;;;;;;;34.20;12.82;;;;;;;0.94;87.85;100899.91;5051540;28;20049;-68
2022/01/10 02:10:24;;;;;;;29.30;12.48;;;;;;;0.92;87.53;100908.75;5051108;28;20041;-69
2022/01/10 02:12:51;;;;;;;33.72;12.45;;;;;;;0.85;87.54;100912.66;5050696;28;20067;-68
2022/01/10 02:15:32;;;;;;;28.65;13.05;;;;;;;0.93;87.66;100916.50;5051250;28;20033;-68
2022/01/10 02:18:03;;;;;;;33.30;12.77;;;;;;;0.94;88.08;100920.78;5069918;28;20057;-68
2022/01/10 02:20:32;;;;;;;26.92;11.13;;;;;;;0.98;88.44;100920.63;5052191;28;20071;-68
2022/01/10 02:23:01;;;;;;;33.10;12.60;;;;;;;0.99;88.25;100920.53;5052295;28;20067;-68
2022/01/10 02:25:48;;;;;;;32.45;12.63;;;;;;;1.00;89.00;100921.38;5051254;28;20049;-68
2022/01/10 02:28:20;;;;;;;32.47;13.90;;;;;;;1.04;89.14;100928.97;5052193;28;20056;-68
2022/01/10 02:30:52;;;;;;;38.78;14.07;;;;;;;1.12;88.69;100938.97;5084000;28;20048;-68
2022/01/10 02:33:18;;;;;;;34.58;14.55;;;;;;;1.21;88.58;100935.00;5019169;28;20567;-68
2022/01/10 02:35:55;;;;;;;32.45;12.75;;;;;;;1.51;88.35;100945.41;5050863;28;20480;-68
2022/01/10 02:38:22;;;;;;;36.28;13.40;;;;;;;1.43;88.54;100940.63;5052259;28;20048;-68
2022/01/10 02:40:51;;;;;;;35.03;12.95;;;;;;;1.49;89.12;100945.53;5051944;28;20379;-68
2022/01/10 02:43:18;;;;;;;31.60;13.82;;;;;;;1.67;88.27;100947.97;5052148;28;20045;-68
2022/01/10 02:45:46;;;;;;;42.75;14.02;;;;;;;1.54;88.74;100951.28;5050733;28;20128;-68
2022/01/10 02:48:13;;;;;;;41.28;14.18;;;;;;;1.69;89.17;100952.19;5052109;28;20053;-68
2022/01/10 02:50:40;;;;;;;39.53;13.98;;;;;;;1.64;88.56;100951.63;5051915;28;20052;-68
2022/01/10 02:53:07;;;;;;;37.58;12.85;;;;;;;1.70;88.96;100966.09;5017837;28;20051;-68
2022/01/10 02:55:36;;;;;;;35.88;13.48;;;;;;;1.76;88.55;100968.34;5051721;28;20041;-68
2022/01/10 02:58:02;;;;;;;35.20;12.40;;;;;;;1.76;88.51;100970.13;5051957;28;20069;-69
2022/01/10 03:00:31;;;;;;;36.50;13.48;;;;;;;1.78;88.30;100976.94;5054144;28;20045;-68
2022/01/10 03:02:59;;;;;;;34.63;13.27;;;;;;;1.82;88.48;100974.97;5055565;28;20065;-68
2022/01/10 03:05:27;;;;;;;32.28;13.00;;;;;;;1.86;88.28;100984.34;5054317;28;20120;-68
2022/01/10 03:07:56;;;;;;;35.70;13.65;;;;;;;2.11;87.21;100983.69;5055521;28;20045;-68
2022/01/10 03:10:23;;;;;;;37.85;13.88;;;;;;;2.07;88.13;100997.88;5036256;28;20119;-69
2022/01/10 03:12:50;;;;;;;50.05;13.25;;;;;;;2.08;88.43;101008.28;5055391;28;20041;-68
2022/01/10 03:15:18;;;;;;;36.65;14.57;;;;;;;2.09;88.06;101004.72;5037743;28;20052;-68
2022/01/10 03:17:47;;;;;;;35.35;12.82;;;;;;;2.12;87.57;101008.94;5054328;28;20047;-68
2022/01/10 03:20:14;;;;;;;39.22;14.10;;;;;;;2.16;86.95;101006.97;5037375;28;20061;-68
2022/01/10 03:22:40;;;;;;;36.00;13.38;;;;;;;2.09;87.55;101019.56;5053989;28;20044;-68
2022/01/10 03:25:09;;;;;;;33.80;13.15;;;;;;;2.10;87.23;101029.94;5055218;28;20140;-68
2022/01/10 03:27:38;;;;;;;37.15;13.48;;;;;;;2.13;87.45;101028.94;5055345;28;20475;-68
2022/01/10 03:30:05;;;;;;;32.00;14.07;;;;;;;2.15;87.51;101028.81;5055147;28;20457;-68
2022/01/10 03:32:33;;;;;;;32.97;12.65;;;;;;;2.11;88.40;101034.25;5054023;28;20049;-68
2022/01/10 03:35:11;;;;;;;37.72;13.40;;;;;;;2.10;87.94;101029.94;5053934;28;20045;-68
2022/01/10 03:37:38;;;;;;;38.90;13.23;;;;;;;2.12;88.01;101040.34;5053465;28;20408;-68
2022/01/10 03:40:06;;;;;;;39.90;13.27;;;;;;;2.15;87.84;101041.91;5054821;28;20406;-68
2022/01/10 03:42:34;;;;;;;35.83;13.45;;;;;;;2.14;87.87;101043.69;5053651;28;20095;-69
2022/01/10 03:45:04;;;;;;;33.13;13.55;;;;;;;2.16;87.65;101033.97;5054803;28;20037;-69
2022/01/10 03:47:31;;;;;;;30.25;12.70;;;;;;;2.17;88.00;101042.69;5050728;28;20048;-69
2022/01/10 03:49:57;;;;;;;38.75;12.95;;;;;;;2.17;88.00;101046.13;5053619;28;20052;-68
2022/01/10 03:52:26;;;;;;;33.75;13.13;;;;;;;2.18;88.16;101049.59;5054032;28;20060;-68
2022/01/10 03:54:54;;;;;;;36.55;13.90;;;;;;;2.17;87.65;101055.78;5054432;28;20505;-68
2022/01/10 03:57:20;;;;;;;39.75;13.30;;;;;;;2.16;88.05;101054.91;5054652;28;20064;-68
2022/01/10 03:59:47;;;;;;;35.05;14.13;;;;;;;2.21;87.96;101065.94;5054433;28;20461;-68
2022/01/10 04:02:14;;;;;;;35.60;13.57;;;;;;;2.13;87.98;101054.25;5054490;28;20056;-68
2022/01/10 04:04:45;;;;;;;35.35;13.32;;;;;;;2.10;87.92;101056.13;5053527;28;20441;-68
2022/01/10 04:07:16;;;;;;;39.92;14.32;;;;;;;2.08;87.75;101065.84;5054699;28;20533;-69
2022/01/10 04:09:43;;;;;;;37.03;13.97;;;;;;;2.03;87.64;101072.28;5053134;28;20576;-68
2022/01/10 04:12:10;;;;;;;30.23;12.70;;;;;;;1.78;88.19;101078.94;5043378;28;20283;-68
2022/01/10 04:14:37;;;;;;;35.92;13.05;;;;;;;1.91;87.77;101082.56;5029057;28;20129;-68
2022/01/10 04:17:04;;;;;;;32.58;13.18;;;;;;;1.91;87.29;101081.69;5053407;28;20055;-68
2022/01/10 04:19:32;;;;;;;28.80;12.38;;;;;;;1.89;87.36;101094.88;5053190;28;20041;-68
2022/01/10 04:21:58;;;;;;;30.75;13.00;;;;;;;1.89;87.62;101101.88;5054258;28;20508;-68
2022/01/10 04:24:26;;;;;;;35.03;13.05;;;;;;;1.90;86.93;101106.19;5054080;28;20045;-68
2022/01/10 04:26:53;;;;;;;48.15;13.95;;;;;;;1.86;87.42;101110.75;5053936;28;20045;-69
2022/01/10 04:29:20;;;;;;;32.50;12.90;;;;;;;1.83;87.56;101121.38;5054210;28;20065;-68
2022/01/10 04:31:47;;;;;;;35.15;13.05;;;;;;;1.89;87.18;101128.91;5053712;28;20037;-68
2022/01/10 04:34:16;;;;;;;39.53;13.45;;;;;;;2.04;87.21;101136.78;5054055;28;20055;-68
2022/01/10 04:36:43;;;;;;;34.08;12.80;;;;;;;2.05;87.17;101133.22;5052220;28;20041;-68
2022/01/10 04:39:10;;;;;;;34.10;13.68;;;;;;;1.98;87.07;101144.97;5053675;28;20049;-69
2022/01/10 04:41:39;;;;;;;33.80;12.55;;;;;;;1.88;87.11;101137.66;5036255;28;20057;-68
2022/01/10 04:44:07;;;;;;;31.63;12.40;;;;;;;1.91;87.40;101147.97;5052761;28;20056;-68
2022/01/10 04:46:34;;;;;;;31.73;12.68;;;;;;;1.95;87.30;101159.09;5052276;28;20128;-68
2022/01/10 04:49:02;;;;;;;33.95;13.55;;;;;;;1.94;87.17;101164.41;5053749;28;20044;-68
2022/01/10 04:51:31;;;;;;;30.13;12.90;;;;;;;1.92;86.84;101174.97;5053537;28;20107;-68
2022/01/10 04:53:58;;;;;;;32.17;13.40;;;;;;;1.94;87.20;101169.66;5035739;28;20041;-68
2022/01/10 04:56:26;;;;;;;35.88;14.00;;;;;;;1.91;87.21;101174.13;5052276;28;20123;-68
2022/01/10 04:58:54;;;;;;;30.55;12.30;;;;;;;1.91;87.08;101181.13;5052370;28;20045;-69
2022/01/10 05:01:22;;;;;;;31.85;13.48;;;;;;;1.83;87.16;101185.97;5020009;28;20040;-68
2022/01/10 05:03:52;;;;;;;29.90;12.77;;;;;;;1.82;87.36;101203.44;5053430;28;20045;-68
2022/01/10 05:06:19;;;;;;;34.78;13.88;;;;;;;1.83;87.66;101215.56;5052790;28;20049;-68
2022/01/10 05:08:46;;;;;;;35.00;14.55;;;;;;;1.81;87.54;101214.81;5050765;28;20052;-68
2022/01/10 05:11:24;;;;;;;35.38;14.60;;;;;;;1.81;87.51;101216.59;5052148;28;20390;-68
2022/01/10 05:13:50;;;;;;;36.20;14.13;;;;;;;1.81;88.16;101213.97;5053246;28;20045;-69
2022/01/10 05:16:19;;;;;;;33.45;14.52;;;;;;;1.86;87.41;101220.63;5052932;28;20033;-68
2022/01/10 05:18:46;;;;;;;35.33;14.27;;;;;;;1.88;87.72;101221.41;5053066;28;20045;-68
2022/01/10 05:21:16;;;;;;;33.40;13.73;;;;;;;1.90;88.07;101227.38;5035233;28;20045;-69
2022/01/10 05:23:43;;;;;;;32.10;14.18;;;;;;;1.86;88.22;101225.88;5052781;28;20049;-68
2022/01/10 05:26:10;;;;;;;31.40;14.90;;;;;;;1.97;87.47;101238.34;5068466;28;20128;-68
2022/01/10 05:28:39;;;;;;;30.23;14.18;;;;;;;1.92;87.78;101235.16;5052809;28;20123;-68
2022/01/10 05:31:06;;;;;;;31.33;13.80;;;;;;;1.92;87.79;101248.22;5068521;28;20448;-68
2022/01/10 05:33:43;;;;;;;43.50;14.15;;;;;;;1.95;87.97;101249.81;5051194;28;20054;-68
2022/01/10 05:36:10;;;;;;;35.08;13.68;;;;;;;1.97;87.98;101263.69;5052642;28;20052;-68
2022/01/10 05:38:40;;;;;;;34.15;14.15;;;;;;;1.95;87.45;101269.00;5051720;28;20056;-68
2022/01/10 05:41:07;;;;;;;35.15;14.13;;;;;;;1.94;87.33;101267.31;5051585;28;20070;-68
2022/01/10 05:43:34;;;;;;;38.80;14.52;;;;;;;1.88;87.46;101263.25;5051432;28;20094;-68
2022/01/10 05:46:03;;;;;;;28.30;12.57;;;;;;;1.95;86.87;101273.38;5033577;28;20041;-68
2022/01/10 05:48:31;;;;;;;29.38;14.00;;;;;;;1.92;86.88;101277.00;5049289;28;20048;-69
2022/01/10 05:51:02;;;;;;;31.20;14.38;;;;;;;1.85;87.33;101292.19;5050550;28;20053;-68
2022/01/10 05:53:32;;;;;;;35.22;14.43;;;;;;;1.80;87.76;101296.88;5051027;28;20064;-68
2022/01/10 05:55:59;;;;;;;32.08;13.32;;;;;;;1.75;87.97;101305.84;5052333;28;20127;-68
2022/01/10 05:58:32;;;;;;;36.75;14.13;;;;;;;1.67;87.97;101320.22;5052341;28;20127;-68
2022/01/10 06:00:59;;;;;;;32.35;13.73;;;;;;;1.65;87.79;101324.66;5052454;28;20069;-69
2022/01/10 06:03:37;;;;;;;40.97;15.63;;;;;;;1.70;87.79;101337.50;5131378;27;20393;-70
2022/01/10 06:06:08;;;;;;;31.95;14.25;;;;;;;1.69;87.50;101341.91;5123407;28;20511;-69
2022/01/10 06:08:36;;;;;;;38.55;14.23;;;;;;;1.75;87.45;101345.09;5127866;28;20048;-69
2022/01/10 06:11:02;;;;;;;39.47;15.18;;;;;;;1.70;88.21;101347.97;5099643;28;20083;-69
2022/01/10 06:13:35;;;;;;;38.22;15.57;;;;;;;1.64;88.02;101345.69;5098015;28;20077;-69
2022/01/10 06:16:03;;;;;;;48.47;15.65;;;;;;;1.48;87.54;101353.50;5131058;27;20065;-69
2022/01/10 06:18:30;;;;;;;38.88;14.52;;;;;;;1.61;87.38;101351.09;5129433;28;20059;-69
2022/01/10 06:20:59;;;;;;;35.53;14.55;;;;;;;1.48;88.35;101361.34;5112987;28;20053;-69
2022/01/10 06:23:26;;;;;;;38.45;14.80;;;;;;;1.49;87.62;101360.41;5130923;28;20046;-69
2022/01/10 06:25:54;;;;;;;34.63;14.52;;;;;;;1.47;88.05;101368.31;5140127;27;20202;-68
2022/01/10 06:28:21;;;;;;;44.25;15.82;;;;;;;1.45;88.06;101366.72;5132433;28;20392;-69
2022/01/10 06:30:51;;;;;;;33.00;15.30;;;;;;;1.49;88.06;101376.97;5129629;28;20100;-69
2022/01/10 06:33:20;;;;;;;31.90;14.50;;;;;;;1.47;87.89;101376.16;5128912;27;20047;-69
2022/01/10 06:35:47;;;;;;;35.03;13.88;;;;;;;1.50;88.19;101383.03;5112382;28;20036;-69
2022/01/10 06:38:13;;;;;;;35.15;14.43;;;;;;;1.55;88.21;101383.63;5129130;28;20039;-68
2022/01/10 06:40:42;;;;;;;31.33;14.75;;;;;;;1.52;87.91;101389.03;5129066;28;20407;-68
2022/01/10 06:43:09;;;;;;;37.58;15.50;;;;;;;1.52;88.18;101399.47;5128983;28;20039;-68
2022/01/10 06:45:37;;;;;;;36.75;14.68;;;;;;;1.47;88.05;101406.72;5112178;28;20400;-68
2022/01/10 06:48:05;;;;;;;36.75;13.73;;;;;;;1.47;88.16;101401.47;5112207;28;20039;-70
2022/01/10 06:50:36;;;;;;;36.80;14.32;;;;;;;1.47;88.16;101412.78;5111879;28;20035;-69
2022/01/10 06:53:03;;;;;;;41.30;15.13;;;;;;;1.45;88.00;101406.78;5108981;28;20063;-70
2022/01/10 06:55:31;;;;;;;42.85;15.05;;;;;;;1.43;87.86;101419.09;5127970;28;20036;-69
2022/01/10 06:58:01;;;;;;;33.20;14.85;;;;;;;1.39;88.37;101414.97;5111754;28;20500;-68
2022/01/10 07:00:28;;;;;;;40.25;14.85;;;;;;;1.40;88.20;101419.28;5129500;27;20050;-68
2022/01/10 07:02:59;;;;;;;37.17;15.73;;;;;;;1.40;88.39;101434.09;5111267;28;20058;-70
2022/01/10 07:05:28;;;;;;;41.90;15.77;;;;;;;1.43;88.16;101441.78;5128533;28;20047;-70
2022/01/10 07:08:03;;;;;;;36.20;14.32;;;;;;;1.42;88.19;101445.31;5129665;27;20126;-69
2022/01/10 07:10:50;;;;;;;38.83;14.25;;;;;;;1.39;88.92;101453.34;5129573;28;20126;-69
2022/01/10 07:13:17;;;;;;;35.25;14.55;;;;;;;1.43;88.32;101458.31;5125649;27;20096;-69
2022/01/10 07:15:46;;;;;;;41.05;14.75;;;;;;;1.39;87.83;101467.25;5115644;28;20393;-69
2022/01/10 07:18:13;;;;;;;34.33;13.77;;;;;;;1.40;87.99;101476.81;5113141;28;20115;-69
2022/01/10 07:20:44;;;;;;;;;;;;;;;1.40;87.39;101475.94;5098806;28;20043;-69
2022/01/10 07:23:12;;;;;;;42.03;13.60;;;;;;;1.37;87.83;101492.63;5114404;28;20010;-69
2022/01/10 07:25:40;;;;;;;29.98;13.52;;;;;;;1.30;87.64;101499.91;5114535;28;20071;-69
2022/01/10 07:28:07;;;;;;;31.52;13.45;;;;;;;1.34;87.28;101498.84;5107396;28;20468;-68
2022/01/10 07:30:34;;;;;;;38.17;13.75;;;;;;;1.34;87.51;101511.91;5114610;28;20047;-68
2022/01/10 07:33:01;;;;;;;36.45;13.73;;;;;;;1.32;86.83;101516.38;5115894;28;20557;-68
2022/01/10 07:35:28;;;;;;;42.13;14.15;;;;;;;1.30;86.80;101522.59;5115642;28;20050;-68
2022/01/10 07:37:54;;;;;;;32.33;13.50;;;;;;;1.28;86.90;101537.53;5114601;28;20571;-68
2022/01/10 07:40:21;;;;;;;35.97;13.13;;;;;;;1.25;86.98;101541.13;5097475;28;20047;-70
2022/01/10 07:42:48;;;;;;;33.25;12.93;;;;;;;1.23;87.32;101544.75;5113499;28;20043;-69
2022/01/10 07:45:25;;;;;;;33.67;13.50;;;;;;;1.29;87.27;101552.28;5114092;28;20047;-69
2022/01/10 07:47:52;;;;;;;35.03;13.30;;;;;;;1.26;87.31;101553.28;5109801;28;20572;-69
2022/01/10 07:50:18;;;;;;;37.00;14.02;;;;;;;1.29;87.62;101560.13;5115280;28;20047;-68
2022/01/10 07:52:45;;;;;;;36.95;13.75;;;;;;;1.31;87.50;101566.97;5108483;28;20042;-68
2022/01/10 07:55:12;;;;;;;32.92;13.25;;;;;;;1.32;87.38;101570.44;5094417;28;20093;-69
2022/01/10 07:57:39;;;;;;;36.30;13.43;;;;;;;1.31;87.28;101569.59;5095010;28;20066;-70
2022/01/10 08:00:06;;;;;;;34.60;13.32;;;;;;;1.30;87.64;101570.50;5094607;28;20047;-69
2022/01/10 08:02:49;;;;;;;32.83;14.15;;;;;;;1.40;87.56;101581.38;5090535;27;20447;-70
2022/01/10 08:05:15;;;;;;;35.15;15.18;;;;;;;1.40;87.75;101590.97;5079141;28;20045;-69
2022/01/10 08:07:42;;;;;;;34.83;14.20;;;;;;;1.39;86.79;101597.97;5067030;28;20049;-69
2022/01/10 08:10:09;;;;;;;32.28;13.05;;;;;;;1.34;87.14;101595.56;5052288;28;20047;-69
2022/01/10 08:12:36;;;;;;;31.73;13.38;;;;;;;1.30;86.99;101612.34;5068657;28;20033;-69
2022/01/10 08:15:03;;;;;;;35.95;13.13;;;;;;;1.24;87.06;101617.88;5069709;28;20052;-69
2022/01/10 08:17:30;;;;;;;44.40;14.50;;;;;;;1.30;87.39;101620.19;5068699;28;20072;-69
2022/01/10 08:19:57;;;;;;;31.33;13.48;;;;;;;1.35;86.95;101619.97;5064027;28;20055;-69
2022/01/10 08:22:24;;;;;;;36.28;13.07;;;;;;;1.37;87.34;101630.34;5051612;28;20454;-69
2022/01/10 08:24:52;;;;;;;34.17;13.57;;;;;;;1.35;87.57;101619.97;5068293;28;20061;-69
2022/01/10 08:27:20;;;;;;;32.20;14.02;;;;;;;1.48;86.63;101636.75;5052463;28;20056;-69
2022/01/10 08:29:48;;;;;;;40.13;13.73;;;;;;;1.50;86.89;101642.75;5053165;28;20056;-69
2022/01/10 08:32:15;;;;;;;30.10;12.93;;;;;;;1.57;86.44;101637.25;5072193;28;20040;-69
2022/01/10 08:34:42;;;;;;;40.65;14.73;;;;;;;1.62;86.33;101645.69;5087633;28;20055;-69
2022/01/10 08:37:10;;;;;;;29.35;12.68;;;;;;;1.61;86.86;101650.09;5089822;28;20485;-69
2022/01/10 08:39:37;;;;;;;33.58;12.57;;;;;;;1.65;86.32;101645.56;5093128;28;20079;-69
2022/01/10 08:42:04;;;;;;;31.45;13.50;;;;;;;1.65;86.87;101648.19;5091248;28;20044;-69
2022/01/10 08:44:31;;;;;;;34.67;12.95;;;;;;;1.67;86.38;101652.44;5090001;28;20051;-69
2022/01/10 08:46:58;;;;;;;31.98;12.88;;;;;;;1.61;86.80;101663.16;5089525;28;20052;-69
2022/01/10 08:49:24;;;;;;;35.38;13.07;;;;;;;1.70;86.30;101659.28;5089048;28;20448;-69
2022/01/10 08:51:54;;;;;;;28.98;12.57;;;;;;;1.74;86.35;101666.03;5089597;28;20036;-69
2022/01/10 08:54:22;;;;;;;36.42;14.25;;;;;;;1.78;86.34;101669.34;5071230;28;20036;-69
2022/01/10 08:56:50;;;;;;;32.33;13.57;;;;;;;1.84;86.68;101683.00;5089188;28;20036;-72
2022/01/10 08:59:17;;;;;;;33.42;13.75;;;;;;;1.87;86.53;101679.38;5038741;28;20072;-70
2022/01/10 09:01:46;;;;;;;35.83;14.15;;;;;;;1.94;86.18;101685.16;5088455;28;20055;-70
2022/01/10 09:04:16;;;;;;;42.03;14.82;;;;;;;1.99;86.25;101685.78;5089204;28;20489;-69
2022/01/10 09:06:45;;;;;;;39.70;14.30;;;;;;;2.03;85.90;101685.53;5087497;28;20048;-69
2022/01/10 09:09:13;;;;;;;34.00;13.75;;;;;;;2.08;86.69;101691.41;5088950;28;20512;-69
2022/01/10 09:11:41;;;;;;;34.92;13.93;;;;;;;2.13;86.37;101704.28;5079327;28;20489;-68
2022/01/10 09:14:09;;;;;;;34.20;13.52;;;;;;;2.19;85.78;101703.97;5074705;28;20060;-69
2022/01/10 09:16:37;;;;;;;37.75;13.88;;;;;;;2.26;85.86;101707.13;5074045;28;20041;-70
2022/01/10 09:19:04;;;;;;;35.58;13.88;;;;;;;2.29;85.66;101717.44;5075044;28;20131;-70
2022/01/10 09:21:30;;;;;;;33.72;13.18;;;;;;;2.39;85.82;101723.09;5069530;28;20040;-64
2022/01/10 09:23:57;;;;;;;34.25;14.10;;;;;;;2.63;85.08;101719.19;5073782;28;20048;-66
2022/01/10 09:26:24;;;;;;;36.13;14.02;;;;;;;2.72;84.85;101722.28;5062353;28;20036;-66
2022/01/10 09:28:53;;;;;;;29.33;14.13;;;;;;;2.69;84.70;101721.53;5071814;28;20049;-65
2022/01/10 09:31:22;;;;;;;38.17;15.20;;;;;;;2.57;85.23;101723.94;5068237;28;20064;-67
2022/01/10 09:33:54;;;;;;;40.60;14.57;;;;;;;2.54;86.16;101726.69;5065994;28;20125;-67
2022/01/10 09:36:23;;;;;;;35.30;14.15;;;;;;;2.52;86.06;101725.94;5063240;28;20044;-67
2022/01/10 09:38:51;;;;;;;38.95;15.43;;;;;;;2.56;86.32;101737.94;5067274;28;20439;-67
2022/01/10 09:41:17;;;;;;;36.90;14.48;;;;;;;2.56;86.11;101730.06;5105038;27;20375;-67
2022/01/10 09:43:50;;;;;;;32.33;14.43;;;;;;;2.56;86.11;101727.47;5061863;28;20370;-67
2022/01/10 09:46:18;;;;;;;37.63;14.85;;;;;;;2.64;86.24;101735.78;5068908;28;20063;-67
2022/01/10 09:48:46;;;;;;;34.42;13.90;;;;;;;2.73;85.69;101737.06;5055240;28;20086;-67
2022/01/10 09:51:23;;;;;;;34.05;14.57;;;;;;;2.91;84.87;101746.63;5062722;28;20169;-66
2022/01/10 09:53:50;;;;;;;38.10;15.40;;;;;;;2.96;84.86;101739.34;5060904;28;20074;-67
2022/01/10 09:56:16;;;;;;;33.10;14.43;;;;;;;2.86;85.37;101746.84;5063311;28;20044;-68
2022/01/10 09:58:45;;;;;;;36.50;15.32;;;;;;;3.01;84.61;101760.09;5069362;28;20041;-67
2022/01/10 10:01:16;;;;;;;37.40;14.70;;;;;;;3.20;83.80;101775.69;5060082;28;20051;-68
2022/01/10 10:03:45;;;;;;;36.45;15.30;;;;;;;3.02;84.62;101778.38;5050308;28;20041;-68
2022/01/10 10:06:12;;;;;;;36.55;15.70;;;;;;;3.01;85.19;101779.28;5064910;28;20051;-68
2022/01/10 10:08:39;;;;;;;33.63;14.85;;;;;;;3.14;84.26;101783.88;5043530;28;20131;-68
2022/01/10 10:11:08;;;;;;;35.88;14.98;;;;;;;3.24;83.95;101779.88;5060437;28;20044;-68
2022/01/10 10:13:44;;;;;;;34.03;13.70;;;;;;;3.26;83.41;101789.34;5059127;28;20424;-67
2022/01/10 10:16:14;;;;;;;38.25;14.90;;;;;;;3.28;84.18;101793.66;5065772;28;20052;-67
2022/01/10 10:18:43;;;;;;;37.63;16.00;;;;;;;3.25;84.49;101797.28;5050990;28;20485;-66
2022/01/10 10:21:12;;;;;;;37.38;15.52;;;;;;;3.30;84.09;101800.50;5067736;28;20048;-69
2022/01/10 10:23:40;;;;;;;37.25;15.93;;;;;;;3.32;84.11;101803.06;5038036;28;20111;-67
2022/01/10 10:26:07;;;;;;;35.97;15.40;;;;;;;3.36;84.76;101799.34;5066457;28;20052;-68
2022/01/10 10:28:36;;;;;;;33.00;15.93;;;;;;;3.40;84.49;101804.34;5062696;28;20037;-66
2022/01/10 10:31:05;;;;;;;40.15;15.60;;;;;;;3.50;84.28;101811.72;5070384;28;20122;-65
2022/01/10 10:33:31;;;;;;;36.70;15.15;;;;;;;3.64;83.93;101811.84;5070564;28;20440;-67
2022/01/10 10:36:03;;;;;;;38.35;15.93;;;;;;;3.66;83.15;101809.97;5054474;28;20084;-68
2022/01/10 10:38:31;;;;;;;36.53;16.35;;;;;;;3.81;82.52;101805.66;5063619;28;20048;-68
2022/01/10 10:41:01;;;;;;;46.22;16.42;;;;;;;3.95;82.31;101810.16;5066871;28;20037;-68
2022/01/10 10:43:31;;;;;;;39.97;15.48;;;;;;;3.97;81.89;101803.88;5070061;28;20062;-68
2022/01/10 10:46:01;;;;;;;35.97;14.85;;;;;;;4.07;81.77;101804.19;5057994;28;20041;-67
2022/01/10 10:48:29;;;;;;;42.92;17.23;;;;;;;4.08;82.02;101807.69;5051508;28;20466;-67
2022/01/10 10:50:59;;;;;;;39.53;18.02;;;;;;;4.28;80.45;101810.03;5064512;28;20437;-67
2022/01/10 10:53:28;;;;;;;45.63;18.15;;;;;;;4.16;81.40;101818.59;5060108;28;20555;-67
2022/01/10 10:55:58;;;;;;;42.88;18.77;;;;;;;4.21;82.25;101817.41;5069506;28;20040;-67
2022/01/10 10:58:30;;;;;;;48.80;19.85;;;;;;;4.35;82.49;101826.31;5063441;28;20056;-67
2022/01/10 11:00:59;;;;;;;42.85;20.02;;;;;;;4.59;81.71;101827.50;5049467;28;20057;-67
2022/01/10 11:03:26;;;;;;;43.38;18.52;;;;;;;4.85;80.92;101834.81;5066830;28;20033;-67
2022/01/10 11:05:57;;;;;;;44.42;19.45;;;;;;;5.91;74.60;101825.72;5065241;28;20103;-67
2022/01/10 11:08:27;;;;;;;44.80;20.42;;;;;;;6.78;72.48;101836.84;5050262;28;20129;-67
2022/01/10 11:10:55;;;;;;;53.95;19.63;;;;;;;7.84;69.24;101834.78;5057598;28;20045;-68
2022/01/10 11:13:23;;;;;;;45.55;19.05;;;;;;;8.81;64.78;101844.47;5061934;28;20507;-68
2022/01/10 11:15:52;;;;;;;47.55;19.70;;;;;;;9.24;63.16;101840.38;5067946;28;20037;-68
2022/01/10 11:18:21;;;;;;;49.88;20.08;;;;;;;9.56;62.50;101843.13;5061181;28;20040;-68
2022/01/10 11:20:51;;;;;;;41.22;19.05;;;;;;;10.32;60.28;101843.28;5041690;28;20053;-68
2022/01/10 11:23:43;;;;;;;42.17;19.23;;;;;;;11.00;58.32;101839.47;5067306;28;20516;-68
2022/01/10 11:26:11;;;;;;;38.83;18.85;;;;;;;11.31;56.27;101845.66;5065235;28;20128;-68
2022/01/10 11:28:48;;;;;;;37.97;18.08;;;;;;;11.82;54.30;101844.75;5059063;28;20036;-68